Time;durP1;ratioP1;P1;durP2;ratioP2;P2;SDS_P1;SDS_P2;PMS_P1;PMS_P2;Temp;Humidity;BMP_temperature;BMP_pressure;BME280_temperature;BME280_humidity;BME280_pressure;Samples;Min_cycle;Max_cycle;Signal;HPM_P1;HPM_P2
2023/04/08 00:01:41;;;;;;;;;;;;;;;;;;5007161;28;8239;-89
2023/04/08 00:04:08;;;;;;;;;;;;;;;;;;5005582;28;7373;-89
2023/04/08 00:06:34;;;;;;;;;;;;;;;;;;4980604;28;8317;-90
2023/04/08 00:08:59;;;;;;;;;;;;;;;;;;4995673;28;6838;-90
2023/04/08 00:11:25;;;;;;;;;;;;;;;;;;4994842;28;8316;-90
2023/04/08 00:13:51;;;;;;;;;;;;;;;;;;4987232;28;8270;-91
2023/04/08 00:16:16;;;;;;;;;;;;;;;;;;4987452;28;9092;-89
2023/04/08 00:18:42;;;;;;;;;;;;;;;;;;4988841;28;8456;-89
2023/04/08 00:21:08;;;;;;;;;;;;;;;;;;4992475;28;7378;-89
2023/04/08 00:23:34;;;;;;;;;;;;;;;;;;4990654;28;6900;-90
2023/04/08 00:25:59;;;;;;;;;;;;;;;;;;4990449;28;7130;-90
2023/04/08 00:28:25;;;;;;;;;;;;;;;;;;4990440;28;7319;-90
2023/04/08 00:30:52;;;;;;;;;;;;;;;;;;4989971;28;7181;-89
2023/04/08 00:33:18;;;;;;;;;;;;;;;;;;4985921;28;8335;-89
2023/04/08 00:35:43;;;;;;;;;;;;;;;;;;4985672;28;6989;-90
2023/04/08 00:38:09;;;;;;;;;;;;;;;;;;4990374;28;8381;-91
2023/04/08 00:40:35;;;;;;;;;;;;;;;;;;4990598;28;8255;-90
2023/04/08 00:43:00;;;;;;;;;;;;;;;;;;4990070;28;8447;-89
2023/04/08 00:45:26;;;;;;;;;;;;;;;;;;4990172;28;6849;-91
2023/04/08 00:47:52;;;;;;;;;;;;;;;;;;4981474;28;7713;-91
2023/04/08 00:50:19;;;;;;;;;;;;;;;;;;4986961;28;7013;-89
2023/04/08 00:52:45;;;;;;;;;;;;;;;;;;4986922;28;6835;-90
2023/04/08 00:55:10;;;;;;;;;;;;;;;;;;4987003;28;7035;-90
2023/04/08 00:57:36;;;;;;;;;;;;;;;;;;4986632;28;8311;-90
2023/04/08 01:00:07;;;;;;;;;;;;;;;;;;4988369;28;8386;-89
2023/04/08 01:02:43;;;;;;;;;;;;;;;;;;4972829;28;8405;-89
2023/04/08 01:05:14;;;;;;;;;;;;;;;;;;4986698;28;7145;-90
2023/04/08 01:07:46;;;;;;;;;;;;;;;;;;4987448;28;7411;-90
2023/04/08 01:10:14;;;;;;;;;;;;;;;;;;4986948;28;7268;-89
2023/04/08 01:12:43;;;;;;;;;;;;;;;;;;4987015;28;7185;-89
2023/04/08 01:15:10;;;;;;;;;;;;;;;;;;4989818;28;7049;-90
2023/04/08 01:17:37;;;;;;;;;;;;;;;;;;4996564;28;7104;-89
2023/04/08 01:20:04;;;;;;;;;;;;;;;;;;4989746;28;8382;-90
2023/04/08 01:22:42;;;;;;;;;;;;;;;;;;4989655;28;7045;-90
2023/04/08 01:25:20;;;;;;;;;;;;;;;;;;5006187;28;8496;-89
2023/04/08 01:27:48;;;;;;;;;;;;;;;;;;4989828;28;7163;-90
2023/04/08 01:30:16;;;;;;;;;;;;;;;;;;4980396;28;8754;-90
2023/04/08 01:32:43;;;;;;;;;;;;;;;;;;5004445;28;8708;-89
2023/04/08 01:35:10;;;;;;;;;;;;;;;;;;4989834;28;7132;-90
2023/04/08 01:37:37;;;;;;;;;;;;;;;;;;4989551;28;8299;-90
2023/04/08 01:40:06;;;;;;;;;;;;;;;;;;4989458;28;7247;-90
2023/04/08 01:42:33;;;;;;;;;;;;;;;;;;4985900;28;8439;-90
2023/04/08 01:45:00;;;;;;;;;;;;;;;;;;4993410;28;8570;-90
2023/04/08 01:47:28;;;;;;;;;;;;;;;;;;4998646;28;8746;-90
2023/04/08 01:49:54;;;;;;;;;;;;;;;;;;4990331;28;7106;-90
2023/04/08 01:52:21;;;;;;;;;;;;;;;;;;4990242;28;7012;-90
2023/04/08 01:54:47;;;;;;;;;;;;;;;;;;4989474;28;8661;-89
2023/04/08 01:57:34;;;;;;;;;;;;;;;;;;4974094;28;8396;-89
2023/04/08 02:00:04;;;;;;;;;;;;;;;;;;4987091;28;7231;-89
2023/04/08 02:02:32;;;;;;;;;;;;;;;;;;4986484;28;8422;-89
2023/04/08 02:04:57;;;;;;;;;;;;;;;;;;4986552;28;8316;-89
2023/04/08 02:07:23;;;;;;;;;;;;;;;;;;4986480;28;6829;-90
2023/04/08 02:09:49;;;;;;;;;;;;;;;;;;4998341;28;8453;-90
2023/04/08 02:12:15;;;;;;;;;;;;;;;;;;4989782;28;6986;-89
2023/04/08 02:14:41;;;;;;;;;;;;;;;;;;4989805;28;8572;-89
2023/04/08 02:17:19;;;;;;;;;;;;;;;;;;4989695;28;7024;-91
2023/04/08 02:19:55;;;;;;;;;;;;;;;;;;4989610;28;7744;-90
2023/04/08 02:22:37;;;;;;;;;;;;;;;;;;4989687;28;7032;-90
2023/04/08 02:25:03;;;;;;;;;;;;;;;;;;4982471;28;6850;-89
2023/04/08 02:27:33;;;;;;;;;;;;;;;;;;4970958;28;8419;-89
2023/04/08 02:30:02;;;;;;;;;;;;;;;;;;4986500;28;7003;-90
2023/04/08 02:32:29;;;;;;;;;;;;;;;;;;4986183;28;8408;-90
2023/04/08 02:34:57;;;;;;;;;;;;;;;;;;4986115;28;7219;-90
2023/04/08 02:37:22;;;;;;;;;;;;;;;;;;4986150;28;7250;-90
2023/04/08 02:39:48;;;;;;;;;;;;;;;;;;4991581;28;8273;-89
2023/04/08 02:42:14;;;;;;;;;;;;;;;;;;5000980;28;6977;-89
2023/04/08 02:44:40;;;;;;;;;;;;;;;;;;4985987;28;7158;-89
2023/04/08 02:47:05;;;;;;;;;;;;;;;;;;4988791;28;8645;-91
2023/04/08 02:49:31;;;;;;;;;;;;;;;;;;5005482;28;7018;-91
2023/04/08 02:51:56;;;;;;;;;;;;;;;;;;5006852;28;7292;-89
2023/04/08 02:54:22;;;;;;;;;;;;;;;;;;4983282;28;7008;-89
2023/04/08 02:56:48;;;;;;;;;;;;;;;;;;4992250;28;8274;-89
2023/04/08 02:59:13;;;;;;;;;;;;;;;;;;4992378;28;8474;-89
2023/04/08 03:01:39;;;;;;;;;;;;;;;;;;4991977;28;8674;-90
2023/04/08 03:04:05;;;;;;;;;;;;;;;;;;4992234;28;8282;-89
2023/04/08 03:06:31;;;;;;;;;;;;;;;;;;4979772;28;7002;-90
2023/04/08 03:08:56;;;;;;;;;;;;;;;;;;4991085;28;8568;-88
2023/04/08 03:11:22;;;;;;;;;;;;;;;;;;4991956;28;8693;-90
2023/04/08 03:13:47;;;;;;;;;;;;;;;;;;4991978;28;7288;-90
2023/04/08 03:16:13;;;;;;;;;;;;;;;;;;4991695;28;8285;-90
2023/04/08 03:18:39;;;;;;;;;;;;;;;;;;4980724;28;8325;-90
2023/04/08 03:21:04;;;;;;;;;;;;;;;;;;4992026;28;7045;-89
2023/04/08 03:23:30;;;;;;;;;;;;;;;;;;4991789;28;7094;-89
2023/04/08 03:25:56;;;;;;;;;;;;;;;;;;4991364;28;8267;-89
2023/04/08 03:28:21;;;;;;;;;;;;;;;;;;4988846;28;7001;-90
2023/04/08 03:30:47;;;;;;;;;;;;;;;;;;5003900;28;8471;-90
2023/04/08 03:33:13;;;;;;;;;;;;;;;;;;4988426;28;6831;-90
2023/04/08 03:35:38;;;;;;;;;;;;;;;;;;4987972;28;7213;-88
2023/04/08 03:38:04;;;;;;;;;;;;;;;;;;4988221;28;8275;-90
2023/04/08 03:40:30;;;;;;;;;;;;;;;;;;4988104;28;7224;-89
2023/04/08 03:42:55;;;;;;;;;;;;;;;;;;4987423;28;7382;-91
2023/04/08 03:45:21;;;;;;;;;;;;;;;;;;4985967;28;6986;-90
2023/04/08 03:47:47;;;;;;;;;;;;;;;;;;4991018;28;8549;-89
2023/04/08 03:50:12;;;;;;;;;;;;;;;;;;4991059;28;8476;-89
2023/04/08 03:53:11;;;;;;;;;;;;;;;;;;;;;
2023/04/08 03:55:32;;;;;;;;;;;;;;;;;;4975360;28;7050;-89
2023/04/08 03:57:58;;;;;;;;;;;;;;;;;;4983920;28;8288;-89
2023/04/08 04:00:23;;;;;;;;;;;;;;;;;;4972093;28;7030;-90
2023/04/08 04:02:49;;;;;;;;;;;;;;;;;;4971855;28;8275;-89
2023/04/08 04:05:15;;;;;;;;;;;;;;;;;;4970921;28;7186;-90
2023/04/08 04:07:41;;;;;;;;;;;;;;;;;;4986398;28;8447;-91
2023/04/08 04:10:07;;;;;;;;;;;;;;;;;;4971062;28;7007;-89
2023/04/08 04:12:33;;;;;;;;;;;;;;;;;;4971322;28;7080;-89
2023/04/08 04:14:59;;;;;;;;;;;;;;;;;;4969031;28;7208;-89
2023/04/08 04:17:25;;;;;;;;;;;;;;;;;;4971528;28;7059;-89
2023/04/08 04:19:51;;;;;;;;;;;;;;;;;;4971341;28;6995;-89
2023/04/08 04:22:20;;;;;;;;;;;;;;;;;;4971350;28;7043;-88
2023/04/08 04:24:46;;;;;;;;;;;;;;;;;;4970944;28;7321;-90
2023/04/08 04:27:12;;;;;;;;;;;;;;;;;;4971391;28;7754;-90
2023/04/08 04:29:38;;;;;;;;;;;;;;;;;;4971193;28;7891;-90
2023/04/08 04:32:03;;;;;;;;;;;;;;;;;;5003319;28;7096;-90
2023/04/08 04:34:29;;;;;;;;;;;;;;;;;;4970902;28;8901;-90
2023/04/08 04:36:55;;;;;;;;;;;;;;;;;;4971014;28;6835;-91
2023/04/08 04:39:21;;;;;;;;;;;;;;;;;;4971112;28;7024;-89
2023/04/08 04:41:48;;;;;;;;;;;;;;;;;;5003367;28;7058;-90
2023/04/08 04:44:14;;;;;;;;;;;;;;;;;;5003241;28;7433;-91
2023/04/08 04:46:40;;;;;;;;;;;;;;;;;;4958037;28;8521;-89
2023/04/08 04:49:06;;;;;;;;;;;;;;;;;;4967853;28;8391;-89
2023/04/08 04:51:34;;;;;;;;;;;;;;;;;;4967464;28;8688;-90
2023/04/08 04:54:00;;;;;;;;;;;;;;;;;;4967559;28;8333;-89
2023/04/08 04:56:26;;;;;;;;;;;;;;;;;;4967726;28;8451;-90
2023/04/08 04:58:52;;;;;;;;;;;;;;;;;;4967354;28;7040;-90
2023/04/08 05:01:18;;;;;;;;;;;;;;;;;;4967784;28;7027;-89
2023/04/08 05:03:44;;;;;;;;;;;;;;;;;;4965544;28;7069;-90
2023/04/08 05:06:10;;;;;;;;;;;;;;;;;;4973061;28;8607;-91
2023/04/08 05:08:36;;;;;;;;;;;;;;;;;;4966241;28;7113;-91
2023/04/08 05:11:02;;;;;;;;;;;;;;;;;;4956008;28;8355;-90
2023/04/08 05:13:28;;;;;;;;;;;;;;;;;;4948160;29;7095;-91
2023/04/08 05:15:53;;;;;;;;;;;;;;;;;;4948146;29;7036;-90
2023/04/08 05:18:19;;;;;;;;;;;;;;;;;;4948025;29;7026;-90
2023/04/08 05:20:45;;;;;;;;;;;;;;;;;;4948111;29;8353;-90
2023/04/08 05:23:11;;;;;;;;;;;;;;;;;;4960432;29;8713;-91
2023/04/08 05:25:37;;;;;;;;;;;;;;;;;;4967074;29;7031;-90
2023/04/08 05:28:03;;;;;;;;;;;;;;;;;;4967217;29;8377;-90
2023/04/08 05:30:28;;;;;;;;;;;;;;;;;;4967369;29;7032;-90
2023/04/08 05:32:54;;;;;;;;;;;;;;;;;;4967028;29;7190;-90
2023/04/08 05:35:20;;;;;;;;;;;;;;;;;;4966836;29;8526;-90
2023/04/08 05:37:46;;;;;;;;;;;;;;;;;;4966951;29;8700;-90
2023/04/08 05:40:11;;;;;;;;;;;;;;;;;;4967275;29;6994;-90
2023/04/08 05:42:37;;;;;;;;;;;;;;;;;;4961940;29;7091;-89
2023/04/08 05:45:03;;;;;;;;;;;;;;;;;;4965873;29;7139;-91
2023/04/08 05:47:28;;;;;;;;;;;;;;;;;;4970073;28;6989;-90
2023/04/08 05:49:54;;;;;;;;;;;;;;;;;;4986557;28;8424;-90
2023/04/08 05:52:20;;;;;;;;;;;;;;;;;;4986366;28;7008;-90
2023/04/08 05:54:46;;;;;;;;;;;;;;;;;;4986174;28;7115;-89
2023/04/08 05:57:11;;;;;;;;;;;;;;;;;;4986421;28;7115;-88
2023/04/08 05:59:37;;;;;;;;;;;;;;;;;;4983383;28;7028;-90
2023/04/08 06:02:03;;;;;;;;;;;;;;;;;;4976633;28;6834;-89
2023/04/08 06:04:29;;;;;;;;;;;;;;;;;;4970808;28;8291;-89
2023/04/08 06:06:58;;;;;;;;;;;;;;;;;;4987195;28;7108;-91
2023/04/08 06:09:24;;;;;;;;;;;;;;;;;;4984755;28;8521;-89
2023/04/08 06:11:51;;;;;;;;;;;;;;;;;;4951606;29;8300;-90
2023/04/08 06:14:17;;;;;;;;;;;;;;;;;;4959648;28;8963;-90
2023/04/08 06:16:43;;;;;;;;;;;;;;;;;;4968367;29;7095;-89
2023/04/08 06:19:15;;;;;;;;;;;;;;;;;;4973076;28;6835;-91
2023/04/08 06:21:41;;;;;;;;;;;;;;;;;;4970004;28;6868;-90
2023/04/08 06:24:06;;;;;;;;;;;;;;;;;;4960193;28;6841;-90
2023/04/08 06:26:32;;;;;;;;;;;;;;;;;;4973585;28;7186;-89
2023/04/08 06:28:58;;;;;;;;;;;;;;;;;;4974590;28;8363;-90
2023/04/08 06:31:23;;;;;;;;;;;;;;;;;;4970693;28;6844;-90
2023/04/08 06:33:52;;;;;;;;;;;;;;;;;;4969204;28;6841;-90
2023/04/08 06:36:18;;;;;;;;;;;;;;;;;;4976796;28;7051;-89
2023/04/08 06:38:43;;;;;;;;;;;;;;;;;;4976293;28;7025;-91
2023/04/08 06:41:09;;;;;;;;;;;;;;;;;;4974447;28;6973;-89
2023/04/08 06:43:36;;;;;;;;;;;;;;;;;;4973325;28;7025;-90
2023/04/08 06:46:02;;;;;;;;;;;;;;;;;;4972355;28;8463;-89
2023/04/08 06:48:31;;;;;;;;;;;;;;;;;;4972777;28;7357;-90
2023/04/08 06:50:57;;;;;;;;;;;;;;;;;;4973112;28;8646;-89
2023/04/08 06:53:24;;;;;;;;;;;;;;;;;;4973080;28;8404;-90
2023/04/08 06:55:50;;;;;;;;;;;;;;;;;;4988878;28;6911;-90
2023/04/08 06:58:15;;;;;;;;;;;;;;;;;;4987458;28;8705;-89
2023/04/08 07:00:41;;;;;;;;;;;;;;;;;;4972830;28;8811;-89
2023/04/08 07:03:07;;;;;;;;;;;;;;;;;;4972536;28;7130;-90
2023/04/08 07:05:35;;;;;;;;;;;;;;;;;;4972736;28;7052;-89
2023/04/08 07:08:01;;;;;;;;;;;;;;;;;;4972586;28;7067;-92
2023/04/08 07:10:27;;;;;;;;;;;;;;;;;;4972407;28;7135;-91
2023/04/08 07:12:53;;;;;;;;;;;;;;;;;;4972382;28;7086;-90
2023/04/08 07:15:18;;;;;;;;;;;;;;;;;;4972556;28;8455;-91
2023/04/08 07:17:45;;;;;;;;;;;;;;;;;;4972401;28;7206;-91
2023/04/08 07:20:11;;;;;;;;;;;;;;;;;;4972492;28;6981;-90
2023/04/08 07:22:36;;;;;;;;;;;;;;;;;;4972441;28;7291;-90
2023/04/08 07:25:02;;;;;;;;;;;;;;;;;;4968858;28;8276;-91
2023/04/08 07:27:27;;;;;;;;;;;;;;;;;;4968962;28;8726;-91
2023/04/08 07:29:53;;;;;;;;;;;;;;;;;;4969146;28;7086;-91
2023/04/08 07:32:19;;;;;;;;;;;;;;;;;;4952873;28;8409;-92
2023/04/08 07:34:45;;;;;;;;;;;;;;;;;;4968714;28;8684;-91
2023/04/08 07:37:11;;;;;;;;;;;;;;;;;;4953269;28;8372;-91
2023/04/08 07:39:36;;;;;;;;;;;;;;;;;;4952653;28;8246;-92
2023/04/08 07:42:02;;;;;;;;;;;;;;;;;;4968598;28;8870;-92
2023/04/08 07:44:27;;;;;;;;;;;;;;;;;;4963804;28;7500;-92
2023/04/08 07:46:53;;;;;;;;;;;;;;;;;;4968425;28;7203;-92
2023/04/08 07:49:19;;;;;;;;;;;;;;;;;;4968850;28;8392;-93
2023/04/08 07:51:44;;;;;;;;;;;;;;;;;;4969138;28;7019;-94
2023/04/08 07:54:11;;;;;;;;;;;;;;;;;;4968603;28;7178;-91
2023/04/08 07:56:39;;;;;;;;;;;;;;;;;;4952548;28;7040;-93
2023/04/08 07:59:05;;;;;;;;;;;;;;;;;;4952472;28;7226;-92
2023/04/08 08:01:33;;;;;;;;;;;;;;;;;;4952559;28;7049;-91
2023/04/08 08:03:59;;;;;;;;;;;;;;;;;;4952513;28;7073;-91
2023/04/08 08:06:26;;;;;;;;;;;;;;;;;;4968601;28;8292;-92
2023/04/08 08:08:52;;;;;;;;;;;;;;;;;;4968447;28;8415;-93
2023/04/08 08:11:18;;;;;;;;;;;;;;;;;;4952510;28;8452;-93
2023/04/08 08:13:48;;;;;;;;;;;;;;;;;;4957827;28;8424;-95
2023/04/08 09:51:47;;;;;;;;;;;;;;;;;;5025295;28;7086;-95
2023/04/08 09:54:14;;;;;;;;;;;;;;;;;;5039945;28;7230;-94
2023/04/08 09:56:48;;;;;;;;;;;;;;;;;;5018243;28;6920;-95
2023/04/08 09:59:17;;;;;;;;;;;;;;;;;;5024800;28;7076;-94
2023/04/08 10:02:10;;;;;;;;;;;;;;;;;;5024354;28;7107;-94
2023/04/08 10:04:38;;;;;;;;;;;;;;;;;;5026961;28;8355;-96
2023/04/08 10:07:05;;;;;;;;;;;;;;;;;;5021427;28;7076;-94
2023/04/08 10:09:31;;;;;;;;;;;;;;;;;;5011015;28;6959;-94
2023/04/08 10:11:58;;;;;;;;;;;;;;;;;;5028764;28;7070;-93
2023/04/08 10:14:27;;;;;;;;;;;;;;;;;;5029750;28;7106;-93
2023/04/08 10:17:12;;;;;;;;;;;;;;;;;;5028629;28;7089;-95
2023/04/08 10:19:41;;;;;;;;;;;;;;;;;;5041315;28;7085;-93
2023/04/08 10:22:26;;;;;;;;;;;;;;;;;;5028552;28;6881;-95
2023/04/08 10:25:10;;;;;;;;;;;;;;;;;;5041947;28;7053;-95
2023/04/08 10:27:40;;;;;;;;;;;;;;;;;;5025185;28;7162;-95
2023/04/08 10:30:25;;;;;;;;;;;;;;;;;;5008756;28;8392;-94
2023/04/08 10:32:58;;;;;;;;;;;;;;;;;;5009166;28;8882;-93
2023/04/08 10:35:31;;;;;;;;;;;;;;;;;;5018024;28;6866;-93
2023/04/08 10:37:57;;;;;;;;;;;;;;;;;;5028479;28;7099;-93
2023/04/08 10:40:23;;;;;;;;;;;;;;;;;;5028234;28;8620;-93
2023/04/08 10:42:55;;;;;;;;;;;;;;;;;;5028293;28;7042;-92
2023/04/08 10:45:22;;;;;;;;;;;;;;;;;;5019321;28;7057;-92
2023/04/08 10:47:47;;;;;;;;;;;;;;;;;;5012790;28;8417;-92
2023/04/08 10:50:14;;;;;;;;;;;;;;;;;;5027696;28;7218;-91
2023/04/08 10:52:46;;;;;;;;;;;;;;;;;;5044846;28;7090;-92
2023/04/08 10:55:12;;;;;;;;;;;;;;;;;;5044862;28;7142;-91
2023/04/08 10:57:39;;;;;;;;;;;;;;;;;;5044743;28;8671;-92
2023/04/08 11:00:05;;;;;;;;;;;;;;;;;;5044672;28;7303;-91
2023/04/08 11:02:32;;;;;;;;;;;;;;;;;;5044372;28;8759;-92
2023/04/08 11:04:57;;;;;;;;;;;;;;;;;;5044218;28;7098;-91
2023/04/08 11:07:24;;;;;;;;;;;;;;;;;;5027773;28;8373;-92
2023/04/08 11:09:50;;;;;;;;;;;;;;;;;;5027928;28;8704;-91
2023/04/08 11:12:18;;;;;;;;;;;;;;;;;;5028014;28;8693;-93
2023/04/08 11:14:43;;;;;;;;;;;;;;;;;;5027192;28;7301;-92
2023/04/08 11:17:09;;;;;;;;;;;;;;;;;;5027322;28;7146;-92
2023/04/08 11:19:35;;;;;;;;;;;;;;;;;;5044301;28;8344;-92
2023/04/08 11:22:01;;;;;;;;;;;;;;;;;;5044183;28;7083;-92
2023/04/08 11:24:27;;;;;;;;;;;;;;;;;;5043958;28;8456;-91
2023/04/08 11:26:54;;;;;;;;;;;;;;;;;;5043855;28;6862;-92
2023/04/08 11:29:20;;;;;;;;;;;;;;;;;;5043747;28;9042;-91
2023/04/08 11:31:48;;;;;;;;;;;;;;;;;;5043905;28;8343;-91
2023/04/08 11:34:21;;;;;;;;;;;;;;;;;;5043981;28;7550;-91
2023/04/08 11:36:47;;;;;;;;;;;;;;;;;;5043540;28;8750;-91
2023/04/08 11:39:12;;;;;;;;;;;;;;;;;;5027037;28;8348;-93
2023/04/08 11:41:39;;;;;;;;;;;;;;;;;;5027395;28;6940;-90
2023/04/08 11:44:05;;;;;;;;;;;;;;;;;;5027359;28;8911;-92
2023/04/08 11:46:32;;;;;;;;;;;;;;;;;;5027208;28;7322;-91
2023/04/08 11:48:58;;;;;;;;;;;;;;;;;;5026903;28;7090;-91
2023/04/08 11:51:25;;;;;;;;;;;;;;;;;;5032711;28;6891;-92
2023/04/08 11:53:50;;;;;;;;;;;;;;;;;;5043359;28;7279;-92
2023/04/08 11:56:23;;;;;;;;;;;;;;;;;;5043826;28;7249;-91
2023/04/08 11:58:50;;;;;;;;;;;;;;;;;;5043383;28;8347;-92
2023/04/08 12:01:16;;;;;;;;;;;;;;;;;;5043472;28;9145;-91
2023/04/08 12:03:54;;;;;;;;;;;;;;;;;;5042255;28;8756;-93
2023/04/08 12:06:20;;;;;;;;;;;;;;;;;;5043480;28;7386;-92
2023/04/08 12:08:45;;;;;;;;;;;;;;;;;;5026826;28;8634;-92
2023/04/08 12:11:14;;;;;;;;;;;;;;;;;;5026439;28;8538;-92
2023/04/08 12:13:41;;;;;;;;;;;;;;;;;;5026588;28;7140;-91
2023/04/08 12:16:07;;;;;;;;;;;;;;;;;;5042866;28;6868;-91
2023/04/08 12:18:32;;;;;;;;;;;;;;;;;;5043260;28;8539;-91
2023/04/08 12:20:58;;;;;;;;;;;;;;;;;;5042927;28;8411;-92
2023/04/08 12:23:23;;;;;;;;;;;;;;;;;;5042825;28;7233;-91
2023/04/08 12:25:49;;;;;;;;;;;;;;;;;;5042648;28;7218;-92
2023/04/08 12:28:14;;;;;;;;;;;;;;;;;;5042929;28;7396;-91
2023/04/08 12:30:40;;;;;;;;;;;;;;;;;;5042835;28;6872;-92
2023/04/08 12:33:06;;;;;;;;;;;;;;;;;;5042706;28;8416;-91
2023/04/08 12:35:31;;;;;;;;;;;;;;;;;;5042603;28;7029;-90
2023/04/08 12:37:57;;;;;;;;;;;;;;;;;;5042575;28;7025;-92
2023/04/08 12:40:22;;;;;;;;;;;;;;;;;;5042592;28;7471;-90
2023/04/08 12:42:48;;;;;;;;;;;;;;;;;;5042531;28;7311;-91
2023/04/08 12:45:13;;;;;;;;;;;;;;;;;;5042859;28;6882;-90
2023/04/08 12:47:39;;;;;;;;;;;;;;;;;;5042675;28;7059;-92
2023/04/08 12:50:05;;;;;;;;;;;;;;;;;;5042372;28;8459;-92
2023/04/08 12:52:32;;;;;;;;;;;;;;;;;;5042480;28;7190;-92
2023/04/08 12:54:58;;;;;;;;;;;;;;;;;;5042412;28;7076;-90
2023/04/08 12:57:23;;;;;;;;;;;;;;;;;;5041558;28;7069;-92
2023/04/08 12:59:52;;;;;;;;;;;;;;;;;;5026078;28;6862;-90
2023/04/08 13:02:17;;;;;;;;;;;;;;;;;;5030796;28;7052;-91
2023/04/08 13:04:43;;;;;;;;;;;;;;;;;;5025767;28;8654;-91
2023/04/08 13:07:09;;;;;;;;;;;;;;;;;;5042280;28;8875;-91
2023/04/08 13:09:35;;;;;;;;;;;;;;;;;;5025440;28;8431;-91
2023/04/08 13:12:00;;;;;;;;;;;;;;;;;;5025595;28;7045;-91
2023/04/08 13:14:26;;;;;;;;;;;;;;;;;;5025800;28;7204;-92
2023/04/08 13:16:54;;;;;;;;;;;;;;;;;;5021266;28;8685;-91
2023/04/08 13:19:20;;;;;;;;;;;;;;;;;;5025635;28;7077;-91
2023/04/08 13:21:45;;;;;;;;;;;;;;;;;;5025205;28;6899;-90
2023/04/08 13:24:11;;;;;;;;;;;;;;;;;;5042431;28;8259;-91
2023/04/08 13:26:37;;;;;;;;;;;;;;;;;;5041509;28;8353;-91
2023/04/08 13:29:02;;;;;;;;;;;;;;;;;;5025082;28;7409;-91
2023/04/08 13:31:27;;;;;;;;;;;;;;;;;;5026068;28;8302;-91
2023/04/08 13:33:53;;;;;;;;;;;;;;;;;;5026492;28;7027;-91
2023/04/08 13:36:19;;;;;;;;;;;;;;;;;;5044159;28;8421;-91
2023/04/08 13:38:45;;;;;;;;;;;;;;;;;;5028085;28;6874;-91
2023/04/08 13:41:10;;;;;;;;;;;;;;;;;;5029671;28;8517;-90
2023/04/08 13:43:36;;;;;;;;;;;;;;;;;;5030283;28;7894;-91
2023/04/08 13:46:01;;;;;;;;;;;;;;;;;;5029284;28;7292;-92
2023/04/08 13:48:27;;;;;;;;;;;;;;;;;;5045618;28;8492;-92
2023/04/08 13:50:52;;;;;;;;;;;;;;;;;;5011350;28;7181;-91
2023/04/08 13:53:18;;;;;;;;;;;;;;;;;;5022618;28;7191;-91
2023/04/08 13:55:43;;;;;;;;;;;;;;;;;;5009484;28;8350;-91
2023/04/08 13:58:09;;;;;;;;;;;;;;;;;;5019314;28;8404;-91
2023/04/08 14:00:34;;;;;;;;;;;;;;;;;;5029075;28;7007;-91
2023/04/08 14:03:02;;;;;;;;;;;;;;;;;;5130525;23;8542;-93
2023/04/08 14:05:28;;;;;;;;;;;;;;;;;;5016134;28;7144;-91
2023/04/08 14:07:54;;;;;;;;;;;;;;;;;;5012680;28;7010;-92
2023/04/08 14:10:19;;;;;;;;;;;;;;;;;;5012446;28;7057;-92
2023/04/08 14:12:45;;;;;;;;;;;;;;;;;;5012429;28;7244;-92
2023/04/08 14:15:11;;;;;;;;;;;;;;;;;;5012642;28;8455;-91
2023/04/08 14:17:36;;;;;;;;;;;;;;;;;;5012610;28;7437;-92
2023/04/08 14:20:05;;;;;;;;;;;;;;;;;;5012553;28;7417;-92
2023/04/08 14:22:30;;;;;;;;;;;;;;;;;;5012082;28;8783;-92
2023/04/08 14:24:56;;;;;;;;;;;;;;;;;;5012269;28;7083;-90
2023/04/08 14:27:22;;;;;;;;;;;;;;;;;;5012292;28;7139;-91
2023/04/08 14:29:47;;;;;;;;;;;;;;;;;;5012254;28;8530;-92
2023/04/08 14:32:12;;;;;;;;;;;;;;;;;;5028687;28;8723;-94
2023/04/08 14:34:38;;;;;;;;;;;;;;;;;;5028588;28;8604;-91
2023/04/08 14:37:04;;;;;;;;;;;;;;;;;;5028431;28;7057;-90
2023/04/08 14:39:29;;;;;;;;;;;;;;;;;;5030454;28;8955;-91
2023/04/08 14:41:57;;;;;;;;;;;;;;;;;;5033070;28;8429;-91
2023/04/08 14:44:22;;;;;;;;;;;;;;;;;;5033577;28;8482;-92
2023/04/08 14:46:48;;;;;;;;;;;;;;;;;;5029997;28;7054;-89
2023/04/08 14:49:13;;;;;;;;;;;;;;;;;;5036666;28;8527;-90
2023/04/08 14:51:39;;;;;;;;;;;;;;;;;;5038352;28;7501;-91
2023/04/08 14:54:04;;;;;;;;;;;;;;;;;;5038590;28;7018;-88
2023/04/08 14:56:30;;;;;;;;;;;;;;;;;;5022860;28;6992;-91
2023/04/08 14:58:56;;;;;;;;;;;;;;;;;;5038733;28;8336;-91
2023/04/08 15:01:21;;;;;;;;;;;;;;;;;;5039246;28;8510;-91
2023/04/08 15:03:46;;;;;;;;;;;;;;;;;;5035398;28;7025;-92
2023/04/08 15:06:15;;;;;;;;;;;;;;;;;;5034529;28;8281;-93
2023/04/08 15:08:41;;;;;;;;;;;;;;;;;;5033228;28;7020;-91
2023/04/08 15:11:07;;;;;;;;;;;;;;;;;;5032184;28;9033;-93
2023/04/08 15:13:34;;;;;;;;;;;;;;;;;;5031561;28;8559;-94
2023/04/08 15:16:00;;;;;;;;;;;;;;;;;;5030050;28;7261;-92
2023/04/08 15:18:26;;;;;;;;;;;;;;;;;;5027390;28;7411;-92
2023/04/08 15:20:52;;;;;;;;;;;;;;;;;;5008359;28;8809;-91
2023/04/08 15:23:17;;;;;;;;;;;;;;;;;;5027201;28;8474;-91
2023/04/08 15:25:43;;;;;;;;;;;;;;;;;;5008879;28;7091;-91
2023/04/08 15:28:08;;;;;;;;;;;;;;;;;;4991622;28;7030;-92
2023/04/08 15:30:34;;;;;;;;;;;;;;;;;;5006967;28;8576;-92
2023/04/08 15:33:03;;;;;;;;;;;;;;;;;;5010042;28;7273;-90
2023/04/08 15:35:31;;;;;;;;;;;;;;;;;;5010836;28;8357;-94
2023/04/08 15:37:57;;;;;;;;;;;;;;;;;;5002359;28;7089;-91
2023/04/08 15:40:22;;;;;;;;;;;;;;;;;;4990965;28;6874;-91
2023/04/08 15:42:48;;;;;;;;;;;;;;;;;;5005898;28;8523;-93
2023/04/08 15:45:13;;;;;;;;;;;;;;;;;;5000230;28;6892;-93
2023/04/08 15:47:40;;;;;;;;;;;;;;;;;;4995508;28;7269;-92
2023/04/08 15:50:06;;;;;;;;;;;;;;;;;;5010040;28;7097;-91
2023/04/08 15:52:31;;;;;;;;;;;;;;;;;;5010551;28;7253;-91
2023/04/08 15:54:57;;;;;;;;;;;;;;;;;;5010519;28;7084;-92
2023/04/08 15:57:25;;;;;;;;;;;;;;;;;;5026591;28;8475;-92
2023/04/08 15:59:51;;;;;;;;;;;;;;;;;;5007265;28;6887;-92
2023/04/08 16:02:17;;;;;;;;;;;;;;;;;;5005310;28;7094;-91
2023/04/08 16:04:42;;;;;;;;;;;;;;;;;;5018097;28;6864;-92
2023/04/08 16:07:08;;;;;;;;;;;;;;;;;;5026940;28;8451;-93
2023/04/08 16:09:33;;;;;;;;;;;;;;;;;;5026754;28;7058;-93
2023/04/08 16:11:59;;;;;;;;;;;;;;;;;;5026488;28;8468;-92
2023/04/08 16:14:25;;;;;;;;;;;;;;;;;;5026661;28;7412;-91
2023/04/08 16:16:50;;;;;;;;;;;;;;;;;;5010270;28;8520;-92
2023/04/08 16:19:15;;;;;;;;;;;;;;;;;;5026515;28;7408;-93
2023/04/08 16:21:41;;;;;;;;;;;;;;;;;;5026475;28;8453;-91
2023/04/08 16:24:07;;;;;;;;;;;;;;;;;;5026376;28;8441;-92
2023/04/08 16:26:33;;;;;;;;;;;;;;;;;;5009833;28;7057;-92
2023/04/08 16:28:58;;;;;;;;;;;;;;;;;;5010026;28;8757;-93
2023/04/08 16:31:24;;;;;;;;;;;;;;;;;;5009772;28;8532;-91
2023/04/08 16:33:49;;;;;;;;;;;;;;;;;;5009895;28;8356;-91
2023/04/08 16:36:15;;;;;;;;;;;;;;;;;;5025486;28;8468;-91
2023/04/08 16:38:40;;;;;;;;;;;;;;;;;;5025992;28;7141;-92
2023/04/08 16:41:08;;;;;;;;;;;;;;;;;;5026196;28;7040;-92
2023/04/08 16:43:35;;;;;;;;;;;;;;;;;;5009507;28;7109;-92
2023/04/08 16:46:09;;;;;;;;;;;;;;;;;;5009427;28;7212;-91
2023/04/08 16:48:35;;;;;;;;;;;;;;;;;;5009833;28;9146;-92
2023/04/08 16:51:03;;;;;;;;;;;;;;;;;;5009211;28;8465;-91
2023/04/08 16:53:28;;;;;;;;;;;;;;;;;;5009688;28;6906;-92
2023/04/08 16:55:54;;;;;;;;;;;;;;;;;;5009694;28;6882;-92
2023/04/08 16:58:20;;;;;;;;;;;;;;;;;;5009159;28;7283;-91
2023/04/08 17:00:45;;;;;;;;;;;;;;;;;;5025828;28;7054;-91
2023/04/08 17:03:11;;;;;;;;;;;;;;;;;;5025642;28;7086;-91
2023/04/08 17:05:37;;;;;;;;;;;;;;;;;;5025705;28;7147;-93
2023/04/08 17:08:02;;;;;;;;;;;;;;;;;;5020033;28;7301;-91
2023/04/08 17:10:28;;;;;;;;;;;;;;;;;;5009471;28;8731;-91
2023/04/08 17:12:53;;;;;;;;;;;;;;;;;;5025408;28;6883;-91
2023/04/08 17:15:19;;;;;;;;;;;;;;;;;;5025475;28;7190;-91
2023/04/08 17:17:46;;;;;;;;;;;;;;;;;;5025743;28;7243;-91
2023/04/08 17:20:12;;;;;;;;;;;;;;;;;;5025426;28;7109;-90
2023/04/08 17:22:37;;;;;;;;;;;;;;;;;;5025248;28;7077;-91
2023/04/08 17:25:05;;;;;;;;;;;;;;;;;;5025503;28;7185;-92
2023/04/08 17:27:31;;;;;;;;;;;;;;;;;;5009385;28;7099;-92
2023/04/08 17:29:56;;;;;;;;;;;;;;;;;;5025472;28;8428;-92
2023/04/08 17:32:23;;;;;;;;;;;;;;;;;;5025596;28;7074;-92
2023/04/08 17:34:49;;;;;;;;;;;;;;;;;;5008933;28;7169;-92
2023/04/08 17:37:15;;;;;;;;;;;;;;;;;;5008800;28;7128;-92
2023/04/08 17:39:40;;;;;;;;;;;;;;;;;;5009217;28;8465;-92
2023/04/08 17:42:07;;;;;;;;;;;;;;;;;;5009238;28;8391;-93
2023/04/08 17:44:33;;;;;;;;;;;;;;;;;;5025304;28;8332;-92
2023/04/08 17:46:58;;;;;;;;;;;;;;;;;;5009083;28;7047;-92
2023/04/08 17:49:24;;;;;;;;;;;;;;;;;;5008951;28;8341;-92
2023/04/08 17:51:50;;;;;;;;;;;;;;;;;;5009138;28;7077;-93
2023/04/08 17:54:16;;;;;;;;;;;;;;;;;;5008643;28;8480;-91
2023/04/08 17:56:42;;;;;;;;;;;;;;;;;;5009144;28;7073;-91
2023/04/08 17:59:08;;;;;;;;;;;;;;;;;;5008863;28;7289;-92
2023/04/08 18:01:33;;;;;;;;;;;;;;;;;;5008695;28;8419;-92
2023/04/08 18:03:59;;;;;;;;;;;;;;;;;;5024630;28;7008;-92
2023/04/08 18:06:25;;;;;;;;;;;;;;;;;;5008960;28;7156;-91
2023/04/08 18:08:50;;;;;;;;;;;;;;;;;;5008900;28;8441;-92
2023/04/08 18:11:16;;;;;;;;;;;;;;;;;;5008632;28;8460;-92
2023/04/08 18:13:41;;;;;;;;;;;;;;;;;;5008892;28;7178;-92
2023/04/08 18:16:14;;;;;;;;;;;;;;;;;;5009036;28;7364;-91
2023/04/08 18:18:39;;;;;;;;;;;;;;;;;;5008748;28;8801;-93
2023/04/08 18:21:05;;;;;;;;;;;;;;;;;;5008458;28;8618;-92
2023/04/08 18:23:30;;;;;;;;;;;;;;;;;;5025119;28;8310;-91
2023/04/08 18:25:56;;;;;;;;;;;;;;;;;;5011130;28;7295;-91
2023/04/08 18:28:22;;;;;;;;;;;;;;;;;;5012236;28;7592;-92
2023/04/08 18:30:51;;;;;;;;;;;;;;;;;;5012277;28;7037;-92
2023/04/08 18:33:17;;;;;;;;;;;;;;;;;;5012231;28;7025;-92
2023/04/08 18:35:42;;;;;;;;;;;;;;;;;;5012037;28;8414;-92